createdAt,value
2023-04-08T00:02:19.577Z,5.67
2023-04-08T00:05:06.186Z,6.00
2023-04-08T00:07:51.388Z,5.03
2023-04-08T00:10:36.462Z,5.83
2023-04-08T00:13:21.933Z,5.20
2023-04-08T00:16:07.136Z,4.83
2023-04-08T00:18:52.517Z,5.20
2023-04-08T00:21:38.174Z,5.57
2023-04-08T00:24:25.016Z,5.67
2023-04-08T00:27:10.316Z,5.57
2023-04-08T00:29:57.034Z,5.30
2023-04-08T00:32:42.438Z,6.43
2023-04-08T00:35:28.275Z,5.30
2023-04-08T00:38:14.100Z,5.13
2023-04-08T00:40:59.614Z,5.30
2023-04-08T00:43:45.434Z,6.43
2023-04-08T00:46:36.054Z,5.90
2023-04-08T00:49:21.164Z,5.93
2023-04-08T00:52:07.043Z,6.87
2023-04-08T00:54:52.340Z,5.67
2023-04-08T00:57:37.892Z,6.53
2023-04-08T01:00:24.349Z,5.63
2023-04-08T01:03:29.649Z,6.47
2023-04-08T01:06:36.276Z,6.00
2023-04-08T01:09:25.206Z,5.50
2023-04-08T01:12:16.137Z,5.20
2023-04-08T01:15:06.998Z,5.40
2023-04-08T01:17:55.007Z,6.10
2023-04-08T01:20:42.093Z,5.87
2023-04-08T01:23:41.193Z,6.60
2023-04-08T01:26:26.925Z,6.00
2023-04-08T01:29:15.056Z,5.60
2023-04-08T01:32:01.195Z,6.30
2023-04-08T01:34:47.614Z,5.40
2023-04-08T01:37:33.588Z,7.37
2023-04-08T01:40:19.880Z,5.60
2023-04-08T01:43:08.237Z,5.30
2023-04-08T01:45:54.807Z,5.70
2023-04-08T01:48:40.814Z,5.97
2023-04-08T01:51:26.898Z,5.47
2023-04-08T01:54:12.405Z,5.93
2023-04-08T01:57:00.005Z,6.47
2023-04-08T01:59:50.317Z,6.13
2023-04-08T02:02:38.187Z,6.47
2023-04-08T02:05:23.610Z,6.90
2023-04-08T02:08:09.203Z,5.87
2023-04-08T02:10:57.333Z,6.63
2023-04-08T02:13:43.431Z,6.47
2023-04-08T02:16:40.551Z,6.87
2023-04-08T02:19:31.782Z,5.17
2023-04-08T02:22:25.705Z,5.43
2023-04-08T02:25:17.056Z,5.20
2023-04-08T02:28:06.056Z,5.80
2023-04-08T02:30:53.014Z,4.80
2023-04-08T02:33:39.102Z,6.10
2023-04-08T02:36:25.880Z,6.27
2023-04-08T02:39:11.033Z,5.73
2023-04-08T02:41:56.472Z,6.20
2023-04-08T02:44:41.826Z,5.20
2023-04-08T02:47:27.388Z,5.97
2023-04-08T02:50:12.707Z,4.97
2023-04-08T02:52:58.097Z,5.47
2023-04-08T02:55:43.600Z,7.17
2023-04-08T02:58:29.080Z,6.07
2023-04-08T03:01:14.380Z,7.00
2023-04-08T03:03:59.483Z,6.87
2023-04-08T03:06:44.560Z,6.43
2023-04-08T03:09:29.530Z,6.93
2023-04-08T03:12:14.938Z,5.67
2023-04-08T03:15:00.148Z,6.37
2023-04-08T03:17:45.356Z,8.53
2023-04-08T03:20:30.580Z,6.47
2023-04-08T03:23:15.977Z,6.13
2023-04-08T03:26:01.957Z,6.77
2023-04-08T03:28:47.305Z,8.80
2023-04-08T03:31:33.185Z,6.27
2023-04-08T03:34:18.756Z,8.50
2023-04-08T03:37:04.013Z,7.00
2023-04-08T03:39:49.199Z,5.53
2023-04-08T03:42:34.221Z,6.43
2023-04-08T03:45:19.709Z,5.97
2023-04-08T03:48:05.894Z,6.10
2023-04-08T03:50:50.936Z,5.90
2023-04-08T03:53:36.206Z,5.87
2023-04-08T03:56:21.543Z,6.20
2023-04-08T03:59:06.728Z,6.00
2023-04-08T04:01:51.878Z,6.33
2023-04-08T04:04:37.208Z,5.77
2023-04-08T04:07:22.553Z,5.27
2023-04-08T04:10:08.680Z,5.20
2023-04-08T04:12:53.780Z,5.60
2023-04-08T04:15:39.704Z,6.17
2023-04-08T04:18:24.834Z,5.83
2023-04-08T04:21:10.413Z,5.30
2023-04-08T04:23:55.631Z,5.47
2023-04-08T04:26:41.763Z,5.43
2023-04-08T04:29:27.227Z,4.83
2023-04-08T04:32:12.804Z,5.00
2023-04-08T04:34:57.877Z,5.10
2023-04-08T04:37:43.235Z,5.53
2023-04-08T04:40:28.662Z,5.23
2023-04-08T04:43:14.288Z,5.63
2023-04-08T04:45:59.794Z,6.27
2023-04-08T04:48:45.192Z,5.90
2023-04-08T04:51:31.753Z,6.33
2023-04-08T04:54:17.206Z,5.37
2023-04-08T04:57:02.327Z,5.37
2023-04-08T04:59:47.695Z,5.97
2023-04-08T05:02:33.257Z,4.67
2023-04-08T05:05:18.732Z,5.10
2023-04-08T05:08:04.333Z,5.23
2023-04-08T05:10:49.788Z,4.90
2023-04-08T05:13:35.217Z,5.53
2023-04-08T05:16:20.793Z,5.83
2023-04-08T05:19:05.937Z,6.40
2023-04-08T05:21:51.216Z,5.77
2023-04-08T05:24:36.742Z,5.20
2023-04-08T05:27:22.738Z,5.73
2023-04-08T05:30:08.705Z,6.20
2023-04-08T05:32:54.552Z,5.03
2023-04-08T05:35:40.165Z,6.47
2023-04-08T05:38:25.528Z,5.47
2023-04-08T05:41:10.827Z,6.40
2023-04-08T05:43:56.025Z,6.67
2023-04-08T05:46:41.407Z,7.13
2023-04-08T05:49:27.628Z,6.07
2023-04-08T05:52:12.610Z,6.33
2023-04-08T05:54:57.830Z,5.97
2023-04-08T05:57:42.992Z,12.53
2023-04-08T06:00:28.376Z,7.13
2023-04-08T06:03:13.917Z,8.40
2023-04-08T06:05:59.235Z,6.90
2023-04-08T06:08:44.591Z,7.27
2023-04-08T06:11:29.907Z,6.87
2023-04-08T06:14:15.262Z,6.50
2023-04-08T06:17:00.509Z,6.63
2023-04-08T06:19:45.644Z,7.00
2023-04-08T06:22:30.992Z,6.30
2023-04-08T06:25:16.053Z,6.47
2023-04-08T06:28:01.577Z,6.20
2023-04-08T06:30:46.595Z,6.20
2023-04-08T06:33:31.913Z,5.90
2023-04-08T06:36:17.291Z,5.47
2023-04-08T06:39:02.816Z,5.83
2023-04-08T06:41:47.850Z,6.77
2023-04-08T06:44:45.351Z,6.10
2023-04-08T06:47:30.665Z,6.00
2023-04-08T06:50:15.964Z,5.97
2023-04-08T06:53:01.364Z,6.03
2023-04-08T06:55:46.521Z,6.87
2023-04-08T06:58:31.741Z,6.57
2023-04-08T07:01:17.192Z,5.87
2023-04-08T07:04:02.395Z,6.53
2023-04-08T07:06:47.471Z,6.57
2023-04-08T07:09:32.643Z,6.77
2023-04-08T07:12:18.320Z,6.93
2023-04-08T07:15:03.982Z,6.43
2023-04-08T07:17:49.526Z,6.83
2023-04-08T07:20:34.791Z,6.70
2023-04-08T07:23:21.104Z,7.30
2023-04-08T07:26:06.313Z,7.93
2023-04-08T07:28:51.943Z,7.20
2023-04-08T07:31:37.537Z,8.27
2023-04-08T07:34:22.834Z,6.97
2023-04-08T07:37:08.047Z,7.50
2023-04-08T07:39:53.392Z,7.10
2023-04-08T07:42:40.701Z,7.83
2023-04-08T07:45:26.013Z,8.80
2023-04-08T07:48:11.727Z,7.97
2023-04-08T07:51:08.344Z,9.17
2023-04-08T07:53:55.093Z,10.20
2023-04-08T07:56:40.428Z,8.80
2023-04-08T07:59:26.080Z,10.10
2023-04-08T08:02:11.606Z,8.80
2023-04-08T08:04:56.891Z,10.70
2023-04-08T08:07:42.268Z,8.60
2023-04-08T08:10:27.434Z,8.80
2023-04-08T08:13:13.070Z,10.13
2023-04-08T08:15:58.436Z,8.97
2023-04-08T08:18:44.085Z,10.13
2023-04-08T08:21:29.323Z,8.60
2023-04-08T08:24:14.940Z,11.70
2023-04-08T08:27:00.596Z,10.77
2023-04-08T08:29:45.777Z,10.03
2023-04-08T08:32:31.062Z,9.07
2023-04-08T08:35:16.371Z,8.57
2023-04-08T08:38:01.786Z,8.60
2023-04-08T08:40:47.245Z,8.13
2023-04-08T08:43:32.832Z,8.37
2023-04-08T08:46:18.517Z,8.07
2023-04-08T08:49:04.009Z,7.33
2023-04-08T08:51:50.682Z,7.57
2023-04-08T08:54:36.016Z,6.87
2023-04-08T08:57:21.369Z,7.93
2023-04-08T09:00:07.430Z,8.60
2023-04-08T09:02:53.171Z,8.07
2023-04-08T09:05:49.889Z,8.83
2023-04-08T09:08:38.986Z,7.17
2023-04-08T09:11:24.429Z,7.40
2023-04-08T09:14:20.217Z,8.37
2023-04-08T09:17:05.464Z,7.40
2023-04-08T09:20:26.098Z,7.83
2023-04-08T09:23:11.275Z,8.20
2023-04-08T09:26:09.688Z,7.53
2023-04-08T09:29:18.132Z,6.57
2023-04-08T09:32:04.399Z,6.87
2023-04-08T09:34:49.888Z,8.23
2023-04-08T09:37:35.346Z,7.73
2023-04-08T09:40:22.648Z,8.97
2023-04-08T09:43:12.565Z,9.03
2023-04-08T09:46:02.401Z,9.93
2023-04-08T09:48:58.454Z,8.77
2023-04-08T09:52:01.190Z,7.63
2023-04-08T09:55:08.592Z,7.83
2023-04-08T09:58:07.052Z,8.50
2023-04-08T10:00:54.340Z,8.77
2023-04-08T10:03:54.309Z,9.17
2023-04-08T10:06:41.510Z,8.53
2023-04-08T10:09:27.884Z,8.40
2023-04-08T10:12:14.086Z,8.13
2023-04-08T10:15:25.434Z,8.00
2023-04-08T10:18:10.458Z,7.70
2023-04-08T10:20:55.728Z,6.13
2023-04-08T10:23:59.761Z,5.90
2023-04-08T10:26:45.817Z,5.70
2023-04-08T10:29:31.781Z,6.20
2023-04-08T10:32:29.168Z,4.80
2023-04-08T10:35:14.948Z,5.17
2023-04-08T10:38:01.084Z,5.17
2023-04-08T10:40:48.396Z,4.90
2023-04-08T10:43:35.323Z,4.40
2023-04-08T10:46:21.133Z,3.93
2023-04-08T10:49:06.077Z,4.67
2023-04-08T10:51:51.670Z,3.67
2023-04-08T10:54:37.453Z,4.57
2023-04-08T10:57:28.194Z,4.43
2023-04-08T11:00:18.339Z,4.30
2023-04-08T11:03:07.100Z,4.40
2023-04-08T11:05:52.495Z,4.53
2023-04-08T11:08:38.764Z,4.23
2023-04-08T11:11:24.411Z,5.07
2023-04-08T11:14:10.334Z,4.63
2023-04-08T11:16:55.673Z,5.07
2023-04-08T11:19:41.267Z,5.03
2023-04-08T11:22:26.921Z,4.60
2023-04-08T11:25:15.256Z,4.33
2023-04-08T11:28:00.602Z,4.37
2023-04-08T11:30:47.908Z,5.07
2023-04-08T11:33:33.278Z,4.90
2023-04-08T11:36:19.044Z,4.33
2023-04-08T11:39:09.606Z,3.97
2023-04-08T11:41:55.632Z,3.97
2023-04-08T11:44:41.021Z,4.70
2023-04-08T11:47:33.177Z,3.80
2023-04-08T11:50:26.654Z,3.93
2023-04-08T11:53:25.163Z,4.30
2023-04-08T11:56:21.464Z,5.97
2023-04-08T11:59:06.752Z,3.80
2023-04-08T12:01:52.735Z,4.50
2023-04-08T12:04:38.569Z,4.80
2023-04-08T12:07:23.965Z,3.93
2023-04-08T12:10:10.557Z,4.10
2023-04-08T12:12:55.750Z,4.73
2023-04-08T12:15:41.234Z,5.07
2023-04-08T12:18:26.420Z,4.80
2023-04-08T12:21:11.688Z,4.90
2023-04-08T12:23:56.821Z,5.10
2023-04-08T12:26:42.974Z,5.47
2023-04-08T12:29:28.738Z,5.47
2023-04-08T12:32:14.088Z,5.60
2023-04-08T12:34:59.476Z,6.13
2023-04-08T12:37:46.912Z,5.20
2023-04-08T12:40:31.842Z,5.90
2023-04-08T12:43:17.946Z,5.50
2023-04-08T12:46:03.560Z,7.00
2023-04-08T12:48:51.415Z,6.30
2023-04-08T12:51:44.992Z,6.77
2023-04-08T12:54:30.250Z,5.50
2023-04-08T12:57:15.710Z,5.70
2023-04-08T13:00:01.040Z,7.10
2023-04-08T13:02:46.816Z,9.20
2023-04-08T13:05:42.720Z,8.13
2023-04-08T13:08:28.597Z,9.33
2023-04-08T13:11:13.961Z,9.67
2023-04-08T13:13:59.536Z,9.80
2023-04-08T13:16:45.044Z,10.37
2023-04-08T13:19:30.226Z,10.20
2023-04-08T13:22:15.429Z,11.57
2023-04-08T13:25:00.763Z,11.67
2023-04-08T13:27:46.243Z,13.57
2023-04-08T13:30:32.351Z,12.27
2023-04-08T13:33:18.775Z,13.07
2023-04-08T13:36:04.642Z,11.30
2023-04-08T13:38:50.012Z,11.33
2023-04-08T13:41:35.590Z,13.57
2023-04-08T13:44:20.651Z,12.13
2023-04-08T13:47:06.010Z,11.73
2023-04-08T13:49:55.149Z,11.30
2023-04-08T13:52:40.517Z,11.87
2023-04-08T13:55:26.065Z,9.90
2023-04-08T13:58:21.039Z,12.67
2023-04-08T14:01:08.623Z,12.37
2023-04-08T14:03:53.838Z,11.87
2023-04-08T14:06:39.335Z,12.20
2023-04-08T14:09:24.965Z,11.53
2023-04-08T14:12:10.835Z,11.93
2023-04-08T14:14:56.095Z,12.10
2023-04-08T14:17:42.076Z,13.17
2023-04-08T14:20:28.004Z,11.73
2023-04-08T14:23:13.253Z,13.37
2023-04-08T14:25:58.195Z,12.10
2023-04-08T14:28:43.735Z,11.90
2023-04-08T14:31:28.881Z,12.17
2023-04-08T14:34:14.526Z,12.17
2023-04-08T14:36:59.881Z,11.33
2023-04-08T14:39:45.282Z,10.07
2023-04-08T14:42:30.629Z,11.00
2023-04-08T14:45:16.479Z,11.73
2023-04-08T14:48:02.140Z,10.10
2023-04-08T14:50:47.188Z,12.13
2023-04-08T14:53:33.749Z,12.93
2023-04-08T14:56:19.483Z,14.30
2023-04-08T14:59:04.849Z,11.57
2023-04-08T15:01:50.182Z,11.73
2023-04-08T15:04:35.627Z,12.73
2023-04-08T15:07:20.806Z,12.40
2023-04-08T15:10:06.583Z,12.73
2023-04-08T15:12:51.896Z,12.73
2023-04-08T15:15:37.397Z,11.80
2023-04-08T15:18:22.910Z,14.13
2023-04-08T15:21:08.454Z,14.40
2023-04-08T15:23:53.893Z,14.23
2023-04-08T15:26:39.072Z,13.17
2023-04-08T15:29:24.426Z,13.67
2023-04-08T15:32:09.690Z,14.33
2023-04-08T15:34:55.077Z,13.73
2023-04-08T15:37:40.496Z,14.50
2023-04-08T15:40:25.788Z,13.97
2023-04-08T15:43:11.449Z,13.10
2023-04-08T15:45:56.915Z,15.47
2023-04-08T15:48:42.505Z,14.47
2023-04-08T15:51:27.688Z,14.20
2023-04-08T15:54:12.817Z,13.87
2023-04-08T15:56:58.166Z,14.47
2023-04-08T15:59:43.559Z,15.00
2023-04-08T16:02:29.329Z,14.60
2023-04-08T16:05:14.885Z,14.10
2023-04-08T16:08:00.355Z,15.17
2023-04-08T16:10:45.820Z,15.17
2023-04-08T16:13:31.617Z,14.97
2023-04-08T16:16:17.104Z,15.57
2023-04-08T16:19:02.291Z,15.10
2023-04-08T16:21:47.645Z,16.27
2023-04-08T16:24:38.204Z,14.73
2023-04-08T16:27:23.518Z,14.77
2023-04-08T16:30:09.295Z,15.10
2023-04-08T16:32:54.816Z,15.57
2023-04-08T16:35:40.221Z,15.67
2023-04-08T16:38:26.283Z,15.80
2023-04-08T16:41:11.917Z,15.00
2023-04-08T16:43:57.219Z,15.73
2023-04-08T16:46:43.029Z,15.83
2023-04-08T16:49:28.413Z,15.90
2023-04-08T16:52:15.068Z,16.57
2023-04-08T16:55:00.255Z,16.17
2023-04-08T16:57:45.831Z,14.97
2023-04-08T17:00:31.392Z,15.13
2023-04-08T17:03:16.933Z,15.70
2023-04-08T17:06:09.817Z,15.40
2023-04-08T17:08:55.449Z,16.00
2023-04-08T17:11:41.117Z,14.80
2023-04-08T17:14:26.174Z,14.87
2023-04-08T17:17:11.461Z,14.70
2023-04-08T17:19:56.680Z,14.83
2023-04-08T17:22:41.784Z,16.00
2023-04-08T17:25:27.422Z,14.93
2023-04-08T17:28:12.627Z,14.40
2023-04-08T17:30:57.898Z,15.07
2023-04-08T17:33:43.169Z,15.03
2023-04-08T17:36:30.447Z,16.83
2023-04-08T17:39:16.054Z,18.67
2023-04-08T17:42:01.628Z,17.60
2023-04-08T17:44:46.831Z,15.80
2023-04-08T17:47:32.085Z,16.30
2023-04-08T17:50:17.919Z,18.30
2023-04-08T17:53:03.152Z,15.97
2023-04-08T17:55:48.708Z,16.90
2023-04-08T17:58:34.068Z,17.97
2023-04-08T18:01:19.426Z,16.67
2023-04-08T18:04:05.260Z,14.70
2023-04-08T18:06:50.506Z,15.40
2023-04-08T18:09:35.729Z,15.13
2023-04-08T18:12:21.202Z,16.37
2023-04-08T18:15:07.002Z,17.10
2023-04-08T18:17:52.229Z,16.37
2023-04-08T18:20:37.715Z,16.53
2023-04-08T18:23:22.790Z,17.50
2023-04-08T18:26:08.065Z,17.33
2023-04-08T18:28:53.228Z,18.17
2023-04-08T18:31:38.853Z,16.43
2023-04-08T18:34:23.999Z,18.30
2023-04-08T18:37:09.507Z,18.80
2023-04-08T18:39:54.829Z,17.47
2023-04-08T18:42:40.571Z,18.87
2023-04-08T18:45:25.910Z,17.83
2023-04-08T18:48:11.646Z,17.63
2023-04-08T18:50:56.819Z,19.17
2023-04-08T18:53:42.870Z,18.87
2023-04-08T18:56:28.358Z,19.40
2023-04-08T18:59:13.853Z,30.03
2023-04-08T19:01:59.412Z,22.90
2023-04-08T19:04:45.163Z,23.30
2023-04-08T19:07:30.285Z,20.77
2023-04-08T19:10:15.908Z,19.03
2023-04-08T19:13:01.821Z,19.37
2023-04-08T19:15:47.460Z,16.50
2023-04-08T19:18:32.934Z,16.53
2023-04-08T19:21:18.347Z,17.83
2023-04-08T19:24:05.098Z,17.47
2023-04-08T19:26:50.293Z,17.10
2023-04-08T19:29:35.782Z,20.20
2023-04-08T19:32:21.067Z,16.17
2023-04-08T19:35:07.461Z,19.63
2023-04-08T19:37:54.484Z,18.87
2023-04-08T19:40:42.528Z,17.53
2023-04-08T19:43:29.277Z,17.93
2023-04-08T19:46:15.759Z,17.83
2023-04-08T19:49:02.366Z,19.43
2023-04-08T19:51:48.155Z,14.97
2023-04-08T19:54:34.805Z,15.57
2023-04-08T19:57:21.273Z,15.63
2023-04-08T20:00:08.208Z,15.67
2023-04-08T20:02:54.839Z,17.67
2023-04-08T20:05:41.574Z,15.17
2023-04-08T20:08:27.059Z,17.00
2023-04-08T20:11:13.615Z,15.13
2023-04-08T20:14:00.437Z,13.10
2023-04-08T20:16:47.845Z,16.70
2023-04-08T20:19:34.390Z,17.00
2023-04-08T20:22:21.603Z,15.60
2023-04-08T20:25:08.306Z,16.73
2023-04-08T20:27:55.121Z,16.37
2023-04-08T20:30:41.954Z,16.97
2023-04-08T20:33:28.470Z,17.03
2023-04-08T20:36:15.383Z,17.23
2023-04-08T20:39:03.196Z,15.90
2023-04-08T20:41:49.287Z,16.83
2023-04-08T20:44:37.277Z,16.70
2023-04-08T20:47:23.087Z,15.23
2023-04-08T20:50:10.276Z,18.23
2023-04-08T20:52:56.984Z,14.40
2023-04-08T20:55:42.834Z,18.20
2023-04-08T20:58:30.298Z,17.30
2023-04-08T21:01:16.741Z,14.70
2023-04-08T21:04:02.858Z,18.00
2023-04-08T21:06:51.368Z,19.40
2023-04-08T21:09:39.924Z,18.47
2023-04-08T21:12:26.115Z,19.97
2023-04-08T21:15:12.528Z,20.30
2023-04-08T21:17:58.552Z,19.03
2023-04-08T21:20:44.119Z,20.40
2023-04-08T21:23:31.669Z,18.83
2023-04-08T21:26:19.787Z,18.83
2023-04-08T21:29:06.491Z,19.83
2023-04-08T21:31:54.229Z,20.13
2023-04-08T21:34:40.347Z,20.57
2023-04-08T21:37:26.657Z,19.93
2023-04-08T21:40:12.725Z,20.70
2023-04-08T21:42:58.098Z,21.67
2023-04-08T21:45:43.619Z,19.23
2023-04-08T21:48:29.705Z,20.27
2023-04-08T21:51:18.502Z,20.67
2023-04-08T21:54:05.252Z,19.60
2023-04-08T21:56:50.796Z,20.73
2023-04-08T21:59:36.147Z,22.33
2023-04-08T22:02:21.747Z,21.60
2023-04-08T22:05:08.797Z,21.77
2023-04-08T22:07:54.039Z,20.87
2023-04-08T22:10:39.293Z,25.40
2023-04-08T22:13:24.348Z,23.57
2023-04-08T22:16:09.489Z,28.13
2023-04-08T22:18:54.953Z,25.97
2023-04-08T22:21:40.141Z,26.00
2023-04-08T22:24:25.364Z,25.27
2023-04-08T22:27:10.664Z,27.67
2023-04-08T22:29:56.967Z,26.63
2023-04-08T22:32:42.445Z,28.20
2023-04-08T22:35:27.856Z,28.50
2023-04-08T22:38:13.321Z,29.53
2023-04-08T22:40:58.590Z,25.80
2023-04-08T22:43:44.081Z,21.77
2023-04-08T22:46:29.353Z,26.50
2023-04-08T22:49:14.985Z,26.67
2023-04-08T22:52:00.310Z,27.23
2023-04-08T22:54:45.716Z,27.23
2023-04-08T22:57:30.927Z,29.40
2023-04-08T23:00:16.095Z,26.73
2023-04-08T23:03:01.739Z,29.03
2023-04-08T23:05:47.098Z,26.13
2023-04-08T23:08:32.996Z,26.83
2023-04-08T23:11:18.424Z,23.73
2023-04-08T23:14:03.712Z,26.50
2023-04-08T23:16:49.103Z,22.20
2023-04-08T23:19:35.475Z,25.00
2023-04-08T23:22:20.925Z,24.27
2023-04-08T23:25:06.823Z,25.83
2023-04-08T23:27:52.176Z,27.87
2023-04-08T23:30:37.816Z,26.63
2023-04-08T23:33:22.976Z,25.80
2023-04-08T23:36:09.600Z,26.03
2023-04-08T23:38:55.191Z,24.30
2023-04-08T23:41:40.497Z,26.63
2023-04-08T23:44:25.727Z,26.30
2023-04-08T23:47:11.156Z,26.10
2023-04-08T23:49:56.573Z,25.47
2023-04-08T23:52:42.196Z,28.60
2023-04-08T23:55:27.712Z,26.90
2023-04-08T23:58:13.761Z,27.00
